Airfield :
LOGIN :

Register | Disclaimer

   EN    FR    IT 

 










Legend :    VFR   Marginal VFR   IFR   Intensive IFR   Very Intensive IFR
Visi :
Ceiling :
>= 8 km
>= 3000ft
5 to 8 km
1000 to 3000 ft
1500m to 5 km
500 to 1000 ft
800 to 1500m
200 to 500 ft
< 800m
< 200 ft
Symbols :   Thunderstorms  Fog  Heavy snow  Heavy precipitations  Wind > 20 kt
SIGMETs :     Misc.  Thunderstorms  Icing  Turbulence  Mountain Waves  Volcanic Ashes






- Airport Elevation : 425 ft
- IATA code : DTM


EDLW - Dortmund

CURRENT METAR :
  • 110650Z 00000KT 9999 FEW042 15/08 Q1023

EXPIRED METARs :
  • 110620Z 00000KT CAVOK 13/09 Q1023
  • 110550Z 00000KT CAVOK 12/10 Q1023
  • 110520Z VRB01KT CAVOK 11/10 Q1022
  • 110450Z VRB02KT 9999 FEW034 10/09 Q1022
  • 110420Z AUTO 18004KT 9999 // SCT033/// 09/08 Q1022
  • 110350Z AUTO 19003KT 9999 // NCD 08/07 Q1022

TAF TAF EDLW
Valid from the 11 at 06:00 until the 12 at 06:00 UTC


110500Z 1106/1206 29004KT 9999 FEW040
TEMPO 1202/1205 4000 BR



MET'MAP, your aeronautical weather chart ! - Copyright ORBIFLY December 2007 - Disclaimer

ORBIFLY MET'MAP TEAM :

Programming & Development : Alexandra Zaïnal
Concept & original design : Baudouin d'Aumeries
Assistance for programming : Marc-Olivier Méhu
Technical & hardware support : Manuel Goepfert

Contact : metmap@orbifly.com




SOURCES & CREDITS :

   NOAA